createdAt,value
2023-02-24T00:02:00.096Z,51.50
2023-02-24T00:04:30.212Z,46.73
2023-02-24T00:06:57.715Z,42.43
2023-02-24T00:09:27.498Z,41.70
2023-02-24T00:12:02.243Z,50.87
2023-02-24T00:14:34.063Z,45.87
2023-02-24T00:17:04.639Z,49.43
2023-02-24T00:19:32.824Z,47.00
2023-02-24T00:22:01.544Z,43.33
2023-02-24T00:24:29.832Z,40.10
2023-02-24T00:27:01.098Z,44.77
2023-02-24T00:29:30.016Z,40.60
2023-02-24T00:32:02.410Z,46.83
2023-02-24T00:34:33.920Z,47.83
2023-02-24T00:37:02.065Z,42.33
2023-02-24T00:39:30.855Z,44.20
2023-02-24T00:42:04.722Z,45.20
2023-02-24T00:44:35.323Z,46.23
2023-02-24T00:47:05.055Z,42.87
2023-02-24T00:49:33.245Z,43.67
2023-02-24T00:52:00.450Z,50.07
2023-02-24T00:54:28.498Z,46.67
2023-02-24T00:56:57.061Z,46.47
2023-02-24T00:59:24.552Z,45.33
2023-02-24T01:01:52.331Z,48.27
2023-02-24T01:04:20.157Z,43.57
2023-02-24T01:07:00.123Z,47.43
2023-02-24T01:09:30.885Z,50.20
2023-02-24T01:12:18.191Z,44.33
2023-02-24T01:14:48.233Z,46.70
2023-02-24T01:17:18.339Z,46.43
2023-02-24T01:19:49.153Z,44.80
2023-02-24T01:22:18.834Z,46.47
2023-02-24T01:24:47.206Z,46.13
2023-02-24T01:27:18.842Z,42.60
2023-02-24T01:29:47.883Z,39.87
2023-02-24T01:32:21.224Z,47.03
2023-02-24T01:34:52.790Z,43.30
2023-02-24T01:37:21.231Z,47.93
2023-02-24T01:39:49.026Z,48.07
2023-02-24T01:42:19.868Z,44.23
2023-02-24T01:44:48.162Z,51.27
2023-02-24T01:47:21.958Z,45.77
2023-02-24T01:49:54.077Z,54.40
2023-02-24T01:52:30.609Z,54.20
2023-02-24T01:55:29.353Z,45.13
2023-02-24T01:57:58.486Z,45.20
2023-02-24T02:00:38.034Z,48.53
2023-02-24T02:03:16.166Z,50.43
2023-02-24T02:05:45.325Z,46.57
2023-02-24T02:08:13.734Z,43.70
2023-02-24T02:10:44.409Z,48.40
2023-02-24T02:13:21.240Z,48.23
2023-02-24T02:16:15.180Z,49.00
2023-02-24T02:18:51.050Z,44.47
2023-02-24T02:21:44.367Z,47.47
2023-02-24T02:24:37.506Z,51.60
2023-02-24T02:27:21.080Z,44.13
2023-02-24T02:30:43.956Z,52.80
2023-02-24T02:34:00.496Z,51.53
2023-02-24T02:36:50.567Z,46.37
2023-02-24T02:39:43.265Z,45.73
2023-02-24T02:42:36.041Z,48.20
2023-02-24T02:45:13.366Z,47.57
2023-02-24T02:48:07.051Z,48.97
2023-02-24T02:50:55.010Z,47.13
2023-02-24T02:53:41.287Z,48.27
2023-02-24T02:56:30.703Z,50.63
2023-02-24T02:58:59.798Z,48.00
2023-02-24T03:01:37.678Z,54.57
2023-02-24T03:04:08.542Z,46.97
2023-02-24T03:06:45.158Z,52.73
2023-02-24T03:09:29.475Z,51.00
2023-02-24T03:12:08.001Z,55.60
2023-02-24T03:14:46.106Z,52.67
2023-02-24T03:17:21.815Z,44.87
2023-02-24T03:20:01.394Z,56.10
2023-02-24T03:22:37.549Z,51.60
2023-02-24T03:25:06.315Z,53.57
2023-02-24T03:27:53.276Z,53.90
2023-02-24T03:30:44.397Z,53.23
2023-02-24T03:33:35.009Z,57.10
2023-02-24T03:36:02.163Z,55.60
2023-02-24T03:38:33.113Z,50.57
2023-02-24T03:41:00.353Z,55.80
2023-02-24T03:43:32.592Z,59.13
2023-02-24T03:46:01.409Z,54.03
2023-02-24T03:48:29.220Z,52.37
2023-02-24T03:50:56.767Z,56.53
2023-02-24T03:54:05.690Z,65.13
2023-02-24T03:57:00.192Z,58.40
2023-02-24T03:59:52.971Z,54.20
2023-02-24T04:02:30.261Z,58.57
2023-02-24T04:05:09.901Z,58.30
2023-02-24T04:08:07.215Z,57.20
2023-02-24T04:11:05.280Z,61.43
2023-02-24T04:13:47.954Z,63.30
2023-02-24T04:16:28.941Z,65.00
2023-02-24T04:19:14.062Z,58.30
2023-02-24T04:21:45.357Z,62.77
2023-02-24T04:24:15.974Z,63.60
2023-02-24T04:26:46.837Z,55.60
2023-02-24T04:29:23.372Z,59.53
2023-02-24T04:32:01.155Z,61.73
2023-02-24T04:34:32.457Z,60.67
2023-02-24T04:37:02.377Z,62.43
2023-02-24T04:39:31.292Z,65.87
2023-02-24T04:42:01.730Z,60.80
2023-02-24T04:44:29.217Z,60.23
2023-02-24T04:46:56.625Z,57.60
2023-02-24T04:49:23.664Z,59.23
2023-02-24T04:51:51.657Z,66.50
2023-02-24T04:54:21.265Z,60.90
2023-02-24T04:56:51.101Z,66.13
2023-02-24T04:59:20.209Z,67.20
2023-02-24T05:01:47.683Z,64.93
2023-02-24T05:04:15.175Z,62.50
2023-02-24T05:06:43.994Z,66.83
2023-02-24T05:09:14.648Z,60.27
2023-02-24T05:11:48.978Z,63.93
2023-02-24T05:14:20.891Z,64.20
2023-02-24T05:16:49.443Z,64.60
2023-02-24T05:19:38.630Z,59.47
2023-02-24T05:22:07.300Z,64.67
2023-02-24T05:24:35.017Z,58.77
2023-02-24T05:27:03.937Z,60.30
2023-02-24T05:29:35.463Z,64.07
2023-02-24T05:32:04.728Z,63.70
2023-02-24T05:34:33.612Z,66.23
2023-02-24T05:37:07.484Z,66.73
2023-02-24T05:39:35.153Z,60.57
2023-02-24T05:42:06.691Z,60.50
2023-02-24T05:44:35.676Z,59.00
2023-02-24T05:47:05.475Z,59.20
2023-02-24T05:49:35.274Z,59.57
2023-02-24T05:52:08.975Z,65.63
2023-02-24T05:54:43.995Z,61.47
2023-02-24T05:57:15.400Z,61.47
2023-02-24T05:59:44.716Z,65.83
2023-02-24T06:02:15.891Z,59.97
2023-02-24T06:04:51.153Z,64.33
2023-02-24T06:07:24.728Z,70.40
2023-02-24T06:09:56.670Z,61.57
2023-02-24T06:12:30.915Z,60.20
2023-02-24T06:14:58.439Z,66.03
2023-02-24T06:17:26.445Z,66.70
2023-02-24T06:19:54.461Z,59.27
2023-02-24T06:22:25.119Z,69.47
2023-02-24T06:24:54.855Z,57.27
2023-02-24T06:27:24.881Z,63.03
2023-02-24T06:29:54.969Z,54.07
2023-02-24T06:32:25.708Z,59.47
2023-02-24T06:34:54.135Z,58.77
2023-02-24T06:37:23.048Z,62.27
2023-02-24T06:39:50.919Z,56.97
2023-02-24T06:42:18.077Z,56.97
2023-02-24T06:44:45.355Z,57.53
2023-02-24T06:47:14.545Z,57.23
2023-02-24T06:49:42.968Z,61.20
2023-02-24T06:52:11.759Z,61.03
2023-02-24T06:54:39.058Z,55.80
2023-02-24T06:57:06.454Z,55.23
2023-02-24T06:59:34.317Z,58.13
2023-02-24T07:02:03.429Z,55.37
2023-02-24T07:04:30.694Z,55.77
2023-02-24T07:07:03.349Z,59.33
2023-02-24T07:09:32.209Z,55.90
2023-02-24T07:12:02.662Z,54.57
2023-02-24T07:14:31.474Z,56.67
2023-02-24T07:16:59.665Z,58.57
2023-02-24T07:19:32.362Z,50.37
2023-02-24T07:22:03.258Z,55.63
2023-02-24T07:24:36.713Z,55.53
2023-02-24T07:27:22.311Z,55.33
2023-02-24T07:29:53.238Z,50.60
2023-02-24T07:32:23.123Z,53.87
2023-02-24T07:34:50.251Z,53.70
2023-02-24T07:37:17.307Z,53.13
2023-02-24T07:39:44.311Z,56.90
2023-02-24T07:42:15.427Z,54.70
2023-02-24T07:44:44.606Z,53.60
2023-02-24T07:47:11.866Z,49.27
2023-02-24T07:49:40.967Z,52.43
2023-02-24T07:52:08.919Z,46.30
2023-02-24T07:54:37.341Z,51.67
2023-02-24T07:57:06.531Z,49.57
2023-02-24T07:59:37.843Z,49.20
2023-02-24T08:02:07.819Z,51.70
2023-02-24T08:04:36.445Z,49.37
2023-02-24T08:07:04.413Z,49.30
2023-02-24T08:09:46.480Z,45.10
2023-02-24T08:12:22.592Z,53.77
2023-02-24T08:14:53.400Z,48.13
2023-02-24T08:17:24.198Z,47.03
2023-02-24T08:20:29.052Z,49.07
2023-02-24T08:22:56.657Z,45.30
2023-02-24T08:25:35.843Z,45.60
2023-02-24T08:28:09.699Z,43.23
2023-02-24T08:30:46.761Z,48.00
2023-02-24T08:33:22.062Z,42.63
2023-02-24T08:36:01.110Z,44.50
2023-02-24T08:38:41.993Z,44.43
2023-02-24T08:41:21.093Z,49.03
2023-02-24T08:43:49.756Z,45.60
2023-02-24T08:46:26.841Z,44.80
2023-02-24T08:49:01.145Z,43.67
2023-02-24T08:51:34.591Z,46.43
2023-02-24T08:54:11.380Z,42.67
2023-02-24T08:56:43.778Z,43.90
2023-02-24T08:59:29.187Z,45.20
2023-02-24T09:02:18.370Z,45.90
2023-02-24T09:04:47.613Z,40.17
2023-02-24T09:07:21.735Z,37.67
2023-02-24T09:09:49.883Z,44.50
2023-02-24T09:12:24.974Z,39.07
2023-02-24T09:15:01.945Z,43.20
2023-02-24T09:17:40.288Z,40.33
2023-02-24T09:20:25.890Z,44.03
2023-02-24T09:23:03.428Z,45.00
2023-02-24T09:25:44.071Z,40.53
2023-02-24T09:28:17.844Z,49.00
2023-02-24T09:30:51.430Z,43.07
2023-02-24T09:33:24.589Z,47.93
2023-02-24T09:36:10.826Z,45.00
2023-02-24T09:38:58.696Z,41.60
2023-02-24T09:42:18.121Z,39.73
2023-02-24T09:44:55.766Z,41.30
2023-02-24T09:47:55.686Z,42.13
2023-02-24T09:50:55.503Z,36.53
2023-02-24T09:53:18.540Z,38.50
2023-02-24T09:56:05.698Z,43.03
2023-02-24T09:58:48.104Z,36.00
2023-02-24T10:01:53.240Z,36.23
2023-02-24T10:05:10.413Z,29.57
2023-02-24T10:07:43.966Z,39.67
2023-02-24T10:10:28.443Z,38.00
2023-02-24T10:13:30.419Z,34.40
2023-02-24T10:16:07.134Z,31.67
2023-02-24T10:19:15.259Z,29.53
2023-02-24T10:22:03.330Z,27.37
2023-02-24T10:24:59.171Z,30.53
2023-02-24T10:28:23.251Z,28.87
2023-02-24T10:31:01.705Z,24.27
2023-02-24T10:33:39.056Z,27.00
2023-02-24T10:36:17.300Z,24.10
2023-02-24T10:38:45.793Z,26.50
2023-02-24T10:41:16.844Z,23.80
2023-02-24T10:43:57.569Z,19.73
2023-02-24T10:46:41.153Z,21.90
2023-02-24T10:49:16.534Z,19.83
2023-02-24T10:51:52.444Z,21.73
2023-02-24T10:54:45.210Z,21.40
2023-02-24T10:57:18.809Z,19.60
2023-02-24T11:00:35.627Z,23.03
2023-02-24T11:03:10.691Z,19.97
2023-02-24T11:06:04.178Z,20.43
2023-02-24T11:08:39.584Z,17.33
2023-02-24T11:11:29.760Z,18.37
2023-02-24T11:14:20.573Z,18.00
2023-02-24T11:17:13.902Z,15.50
2023-02-24T11:20:01.769Z,18.00
2023-02-24T11:22:41.554Z,16.80
2023-02-24T11:25:27.003Z,18.57
2023-02-24T11:27:56.658Z,16.70
2023-02-24T11:30:46.220Z,18.27
2023-02-24T11:33:27.829Z,17.87
2023-02-24T11:36:25.191Z,19.30
2023-02-24T11:39:22.730Z,18.57
2023-02-24T11:41:55.580Z,20.37
2023-02-24T11:45:07.290Z,20.60
2023-02-24T11:47:53.010Z,21.60
2023-02-24T11:50:52.270Z,20.50
2023-02-24T11:53:41.214Z,19.57
2023-02-24T11:56:38.365Z,22.93
2023-02-24T11:59:36.411Z,23.97
2023-02-24T12:02:16.869Z,22.67
2023-02-24T12:05:13.575Z,21.37
2023-02-24T12:07:48.749Z,25.43
2023-02-24T12:10:31.533Z,17.97
2023-02-24T12:14:00.804Z,21.60
2023-02-24T12:16:38.124Z,23.37
2023-02-24T12:19:27.728Z,21.33
2023-02-24T12:22:11.356Z,19.83
2023-02-24T12:24:49.958Z,23.17
2023-02-24T12:27:41.279Z,23.88
2023-02-24T12:30:49.024Z,19.23
2023-02-24T12:33:44.890Z,22.47
2023-02-24T12:36:45.483Z,23.17
2023-02-24T12:39:39.644Z,22.57
2023-02-24T12:42:51.553Z,25.03
2023-02-24T12:45:33.950Z,20.97
2023-02-24T12:48:28.131Z,20.40
2023-02-24T12:51:06.037Z,19.45
2023-02-24T12:54:06.786Z,18.30
2023-02-24T12:56:40.915Z,18.40
2023-02-24T12:59:11.561Z,18.23
2023-02-24T13:02:03.401Z,20.37
2023-02-24T13:05:19.905Z,18.10
2023-02-24T13:08:23.790Z,13.52
2023-02-24T13:10:59.492Z,15.73
2023-02-24T13:14:07.394Z,15.98
2023-02-24T13:16:36.183Z,13.53
2023-02-24T13:19:28.115Z,14.90
2023-02-24T13:22:13.276Z,15.83
2023-02-24T13:25:07.691Z,15.80
2023-02-24T13:27:42.746Z,14.40
2023-02-24T13:30:30.509Z,15.40
2023-02-24T13:33:36.029Z,15.43
2023-02-24T13:36:14.837Z,16.17
2023-02-24T13:38:48.274Z,13.73
2023-02-24T13:41:27.525Z,14.80
2023-02-24T13:44:04.438Z,15.80
2023-02-24T13:47:13.346Z,12.07
2023-02-24T13:50:19.728Z,14.17
2023-02-24T13:52:58.810Z,14.83
2023-02-24T13:56:02.774Z,17.00
2023-02-24T13:59:05.245Z,16.80
2023-02-24T14:01:45.676Z,12.35
2023-02-24T14:04:24.462Z,16.80
2023-02-24T14:07:18.880Z,14.33
2023-02-24T14:09:52.336Z,15.40
2023-02-24T14:12:28.764Z,15.07
2023-02-24T14:14:57.244Z,15.63
2023-02-24T14:17:36.577Z,13.27
2023-02-24T14:20:14.347Z,14.23
2023-02-24T14:22:53.198Z,13.40
2023-02-24T14:25:25.094Z,15.17
2023-02-24T14:27:55.726Z,17.60
2023-02-24T14:30:31.467Z,14.40
2023-02-24T14:32:59.213Z,14.00
2023-02-24T14:35:47.448Z,19.13
2023-02-24T14:38:43.934Z,17.87
2023-02-24T14:41:25.110Z,18.37
2023-02-24T14:43:53.127Z,18.37
2023-02-24T14:46:21.019Z,14.97
2023-02-24T14:48:55.222Z,15.18
2023-02-24T14:51:37.445Z,16.70
2023-02-24T14:54:14.213Z,18.43
2023-02-24T14:56:41.620Z,16.33
2023-02-24T14:59:38.350Z,15.67
2023-02-24T15:02:20.587Z,9.65
2023-02-24T15:04:48.363Z,9.07
2023-02-24T15:07:21.371Z,13.50
2023-02-24T15:09:51.785Z,14.73
2023-02-24T15:12:43.648Z,9.07
2023-02-24T15:15:35.098Z,9.43
2023-02-24T15:18:17.506Z,9.38
2023-02-24T15:20:44.624Z,9.55
2023-02-24T15:23:34.932Z,14.82
2023-02-24T15:26:02.660Z,13.32
2023-02-24T15:28:33.998Z,16.98
2023-02-24T15:31:03.322Z,19.70
2023-02-24T15:33:44.557Z,13.70
2023-02-24T15:36:18.924Z,24.40
2023-02-24T15:38:46.749Z,15.60
2023-02-24T15:41:14.835Z,13.30
2023-02-24T15:43:47.940Z,15.60
2023-02-24T15:46:19.586Z,12.85
2023-02-24T15:48:49.803Z,17.08
2023-02-24T15:51:45.021Z,14.73
2023-02-24T15:54:24.829Z,14.38
2023-02-24T15:56:51.901Z,17.42
2023-02-24T15:59:21.953Z,13.77
2023-02-24T16:01:49.242Z,21.10
2023-02-24T16:04:16.335Z,13.30
2023-02-24T16:06:54.751Z,14.52
2023-02-24T16:09:36.685Z,13.70
2023-02-24T16:12:16.374Z,15.50
2023-02-24T16:14:44.675Z,14.15
2023-02-24T16:17:35.723Z,11.55
2023-02-24T16:20:08.524Z,15.57
2023-02-24T16:22:36.138Z,14.23
2023-02-24T16:25:04.251Z,11.57
2023-02-24T16:27:31.474Z,12.10
2023-02-24T16:30:00.339Z,13.30
2023-02-24T16:32:27.677Z,11.90
2023-02-24T16:34:54.996Z,13.97
2023-02-24T16:37:27.583Z,11.10
2023-02-24T16:39:55.433Z,13.73
2023-02-24T16:42:30.997Z,11.17
2023-02-24T16:44:58.013Z,11.00
2023-02-24T16:47:25.971Z,17.10
2023-02-24T16:49:57.941Z,11.27
2023-02-24T16:52:25.183Z,10.37
2023-02-24T16:54:52.276Z,12.20
2023-02-24T16:57:19.264Z,8.67
2023-02-24T16:59:46.531Z,13.60
2023-02-24T17:02:24.447Z,12.07
2023-02-24T17:04:51.506Z,9.23
2023-02-24T17:07:20.912Z,14.27
2023-02-24T17:09:47.956Z,14.83
2023-02-24T17:12:21.358Z,11.83
2023-02-24T17:14:48.671Z,17.10
2023-02-24T17:17:15.829Z,16.43
2023-02-24T17:19:42.871Z,12.37
2023-02-24T17:22:10.537Z,13.00
2023-02-24T17:24:37.542Z,13.83
2023-02-24T17:27:04.779Z,12.93
2023-02-24T17:29:31.870Z,13.63
2023-02-24T17:31:59.159Z,12.33
2023-02-24T17:34:26.357Z,11.80
2023-02-24T17:36:53.407Z,11.13
2023-02-24T17:39:20.374Z,17.13
2023-02-24T17:41:47.386Z,13.40
2023-02-24T17:44:14.427Z,16.77
2023-02-24T17:46:41.495Z,12.70
2023-02-24T17:49:08.976Z,15.33
2023-02-24T17:51:36.113Z,17.10
2023-02-24T17:54:03.541Z,15.10
2023-02-24T17:56:30.586Z,14.13
2023-02-24T17:59:01.143Z,15.07
2023-02-24T18:01:28.746Z,18.20
2023-02-24T18:03:57.509Z,18.97
2023-02-24T18:06:25.414Z,14.60
2023-02-24T18:08:52.462Z,16.60
2023-02-24T18:11:20.525Z,20.00
2023-02-24T18:13:51.006Z,13.60
2023-02-24T18:16:18.590Z,44.20
2023-02-24T18:18:45.763Z,22.97
2023-02-24T18:21:12.820Z,14.70
2023-02-24T18:23:40.527Z,14.23
2023-02-24T18:26:10.327Z,18.27
2023-02-24T18:28:37.916Z,14.00
2023-02-24T18:31:17.494Z,15.10
2023-02-24T18:33:44.958Z,15.37
2023-02-24T18:36:12.717Z,16.37
2023-02-24T18:38:39.876Z,17.37
2023-02-24T18:41:11.838Z,18.20
2023-02-24T18:43:38.965Z,17.03
2023-02-24T18:46:11.337Z,14.33
2023-02-24T18:48:40.126Z,18.50
2023-02-24T18:51:08.447Z,14.57
2023-02-24T18:53:38.226Z,16.20
2023-02-24T18:56:10.893Z,15.43
2023-02-24T18:58:39.877Z,15.83
2023-02-24T19:01:22.778Z,23.63
2023-02-24T19:03:51.711Z,19.83
2023-02-24T19:06:21.541Z,25.77
2023-02-24T19:08:54.728Z,22.80
2023-02-24T19:11:21.751Z,22.80
2023-02-24T19:13:49.067Z,16.93
2023-02-24T19:16:18.589Z,18.73
2023-02-24T19:18:49.418Z,21.80
2023-02-24T19:21:16.424Z,20.30
2023-02-24T19:23:43.469Z,21.37
2023-02-24T19:26:24.152Z,18.13
2023-02-24T19:28:52.272Z,25.80
2023-02-24T19:31:26.945Z,25.73
2023-02-24T19:33:56.751Z,28.37
2023-02-24T19:36:24.920Z,22.93
2023-02-24T19:38:52.538Z,24.33
2023-02-24T19:41:19.886Z,28.07
2023-02-24T19:43:46.902Z,20.57
2023-02-24T19:46:16.422Z,24.17
2023-02-24T19:48:43.741Z,22.67
2023-02-24T19:51:20.878Z,24.53
2023-02-24T19:53:51.450Z,24.77
2023-02-24T19:56:23.574Z,28.17
2023-02-24T19:58:57.016Z,26.13
2023-02-24T20:01:25.806Z,22.90
2023-02-24T20:04:02.413Z,23.73
2023-02-24T20:06:36.516Z,23.40
2023-02-24T20:09:17.710Z,25.47
2023-02-24T20:11:46.104Z,19.77
2023-02-24T20:14:15.856Z,21.53
2023-02-24T20:16:44.321Z,21.27
2023-02-24T20:19:14.188Z,26.60
2023-02-24T20:21:42.134Z,28.83
2023-02-24T20:24:13.894Z,25.87
2023-02-24T20:26:43.761Z,22.27
2023-02-24T20:29:11.527Z,28.67
2023-02-24T20:31:40.027Z,28.37
2023-02-24T20:34:09.301Z,22.57
2023-02-24T20:36:37.174Z,26.50
2023-02-24T20:39:06.677Z,25.47
2023-02-24T20:41:34.602Z,25.03
2023-02-24T20:44:01.827Z,24.20
2023-02-24T20:46:32.042Z,27.77
2023-02-24T20:49:06.766Z,21.87
2023-02-24T20:51:39.676Z,29.23
2023-02-24T20:54:09.372Z,27.13
2023-02-24T20:56:40.582Z,26.63
2023-02-24T20:59:20.300Z,30.20
2023-02-24T21:01:48.659Z,30.03
2023-02-24T21:04:20.094Z,27.97
2023-02-24T21:06:48.161Z,31.73
2023-02-24T21:09:16.349Z,30.73
2023-02-24T21:11:43.509Z,30.20
2023-02-24T21:14:15.919Z,26.23
2023-02-24T21:16:43.036Z,26.13
2023-02-24T21:19:10.071Z,24.97
2023-02-24T21:21:37.059Z,28.90
2023-02-24T21:24:04.969Z,26.47
2023-02-24T21:26:32.042Z,25.53
2023-02-24T21:28:59.397Z,29.03
2023-02-24T21:31:27.594Z,28.30
2023-02-24T21:33:55.423Z,28.13
2023-02-24T21:36:26.149Z,22.70
2023-02-24T21:38:54.881Z,29.30
2023-02-24T21:41:23.773Z,28.10
2023-02-24T21:43:55.907Z,27.53
2023-02-24T21:46:28.090Z,26.40
2023-02-24T21:48:57.991Z,25.43
2023-02-24T21:51:27.294Z,26.47
2023-02-24T21:53:57.160Z,26.37
2023-02-24T21:56:28.549Z,29.47
2023-02-24T21:59:01.905Z,29.23
2023-02-24T22:01:41.479Z,26.03
2023-02-24T22:04:13.558Z,29.97
2023-02-24T22:06:44.859Z,25.70
2023-02-24T22:09:19.966Z,24.93
2023-02-24T22:11:49.874Z,26.83
2023-02-24T22:14:17.684Z,26.87
2023-02-24T22:16:45.161Z,28.40
2023-02-24T22:19:12.648Z,22.87
2023-02-24T22:21:42.422Z,25.30
2023-02-24T22:24:16.369Z,25.23
2023-02-24T22:26:44.773Z,21.50
2023-02-24T22:29:12.310Z,26.77
2023-02-24T22:31:43.419Z,26.80
2023-02-24T22:34:11.047Z,25.43
2023-02-24T22:36:38.253Z,26.83
2023-02-24T22:39:06.709Z,25.30
2023-02-24T22:41:36.247Z,29.00
2023-02-24T22:44:06.166Z,23.37
2023-02-24T22:46:37.408Z,22.63
2023-02-24T22:49:05.639Z,26.33
2023-02-24T22:51:32.913Z,25.90
2023-02-24T22:53:59.923Z,27.10
2023-02-24T22:56:29.218Z,27.43
2023-02-24T22:58:57.624Z,33.00
2023-02-24T23:01:32.135Z,27.27
2023-02-24T23:04:01.707Z,29.57
2023-02-24T23:06:30.805Z,31.77
2023-02-24T23:09:00.221Z,26.00
2023-02-24T23:11:38.144Z,26.73
2023-02-24T23:14:10.023Z,27.13
2023-02-24T23:16:38.700Z,29.70
2023-02-24T23:19:12.906Z,27.60
2023-02-24T23:21:44.333Z,30.23
2023-02-24T23:24:14.370Z,33.53
2023-02-24T23:26:49.059Z,28.73
2023-02-24T23:29:18.332Z,25.53
2023-02-24T23:31:46.218Z,29.30
2023-02-24T23:34:15.181Z,30.30
2023-02-24T23:36:45.292Z,31.17
2023-02-24T23:39:15.801Z,27.93
2023-02-24T23:41:43.406Z,22.40
2023-02-24T23:44:10.708Z,28.53
2023-02-24T23:46:37.834Z,27.00
2023-02-24T23:49:05.723Z,23.23
2023-02-24T23:51:47.192Z,27.97
2023-02-24T23:54:17.288Z,25.60
2023-02-24T23:56:44.417Z,21.30
2023-02-24T23:59:11.967Z,24.60
